Time;durP1;ratioP1;P1;durP2;ratioP2;P2;SDS_P1;SDS_P2;PMS_P1;PMS_P2;Temp;Humidity;BMP_temperature;BMP_pressure;BME280_temperature;BME280_humidity;BME280_pressure;Samples;Min_cycle;Max_cycle;Signal;HPM_P1;HPM_P2
2024/04/04 00:02:06;;;;;;;;;;;23.90;38.20;;;;;;5075688;28;19986;-61
2024/04/04 00:04:32;;;;;;;;;;;23.90;38.20;;;;;;5075340;28;20328;-61
2024/04/04 00:06:58;;;;;;;;;;;23.90;38.20;;;;;;5075246;28;20406;-61
2024/04/04 00:09:24;;;;;;;;;;;23.90;38.20;;;;;;5075272;28;20370;-61
2024/04/04 00:11:53;;;;;;;;;;;23.90;38.20;;;;;;5074780;28;20400;-61
2024/04/04 00:14:19;;;;;;;;;;;23.90;38.20;;;;;;5075060;28;19932;-61
2024/04/04 00:16:45;;;;;;;;;;;23.90;38.20;;;;;;5074935;28;19928;-61
2024/04/04 00:19:11;;;;;;;;;;;23.90;38.20;;;;;;5075318;28;19973;-61
2024/04/04 00:21:37;;;;;;;;;;;23.90;38.20;;;;;;5074989;28;19924;-61
2024/04/04 00:24:03;;;;;;;;;;;23.90;38.20;;;;;;5075214;28;20392;-61
2024/04/04 00:26:29;;;;;;;;;;;23.90;38.20;;;;;;5074824;28;19925;-61
2024/04/04 00:28:54;;;;;;;;;;;23.90;38.20;;;;;;5075045;28;20374;-61
2024/04/04 00:31:20;;;;;;;;;;;23.90;38.20;;;;;;5074458;28;19973;-61
2024/04/04 00:33:46;;;;;;;;;;;23.90;38.20;;;;;;5074861;28;19931;-61
2024/04/04 00:36:12;;;;;;;;;;;23.90;38.20;;;;;;5074625;28;19932;-61
2024/04/04 00:38:38;;;;;;;;;;;23.90;38.20;;;;;;5074647;28;20278;-61
2024/04/04 00:41:04;;;;;;;;;;;23.80;38.20;;;;;;5074838;28;20013;-61
2024/04/04 00:43:30;;;;;;;;;;;23.80;38.20;;;;;;5074818;28;19932;-61
2024/04/04 00:45:56;;;;;;;;;;;23.80;38.30;;;;;;5057589;28;20397;-61
2024/04/04 00:48:23;;;;;;;;;;;23.80;38.30;;;;;;5074576;28;19928;-61
2024/04/04 00:50:50;;;;;;;;;;;23.80;38.30;;;;;;5057532;28;19924;-61
2024/04/04 00:53:15;;;;;;;;;;;23.80;38.30;;;;;;5074387;28;20278;-61
2024/04/04 00:55:42;;;;;;;;;;;23.80;38.30;;;;;;5074355;28;19936;-61
2024/04/04 00:58:08;;;;;;;;;;;23.80;38.30;;;;;;5074669;28;20008;-61
2024/04/04 01:00:33;;;;;;;;;;;23.80;38.30;;;;;;5074498;28;19924;-61
2024/04/04 01:02:59;;;;;;;;;;;23.80;38.30;;;;;;5057934;28;20281;-61
2024/04/04 01:05:25;;;;;;;;;;;23.80;38.20;;;;;;5074259;28;20374;-61
2024/04/04 01:07:52;;;;;;;;;;;23.80;38.20;;;;;;5074170;28;19928;-61
2024/04/04 01:10:19;;;;;;;;;;;23.80;38.20;;;;;;5073903;28;19932;-61
2024/04/04 01:12:44;;;;;;;;;;;23.80;38.20;;;;;;5074305;28;19925;-61
2024/04/04 01:15:10;;;;;;;;;;;23.80;38.20;;;;;;5074070;28;20397;-61
2024/04/04 01:17:36;;;;;;;;;;;23.80;38.20;;;;;;5073600;28;19974;-61
2024/04/04 01:20:03;;;;;;;;;;;23.80;38.20;;;;;;5074137;28;20038;-61
2024/04/04 01:22:28;;;;;;;;;;;23.80;38.20;;;;;;5073860;28;19924;-61
2024/04/04 01:24:54;;;;;;;;;;;23.80;38.20;;;;;;5073911;28;19925;-61
2024/04/04 01:27:21;;;;;;;;;;;23.80;38.20;;;;;;5073567;28;19928;-61
2024/04/04 01:29:47;;;;;;;;;;;23.80;38.10;;;;;;5073391;28;20065;-61
2024/04/04 01:32:12;;;;;;;;;;;23.80;38.20;;;;;;5056886;28;19925;-61
2024/04/04 01:34:38;;;;;;;;;;;23.80;38.10;;;;;;5073618;28;19925;-61
2024/04/04 01:37:04;;;;;;;;;;;23.80;38.10;;;;;;5073804;28;19928;-61
2024/04/04 01:39:30;;;;;;;;;;;23.80;38.20;;;;;;5073750;28;19924;-61
2024/04/04 01:41:56;;;;;;;;;;;23.80;38.20;;;;;;5073429;28;19935;-61
2024/04/04 01:44:22;;;;;;;;;;;23.80;38.20;;;;;;5073701;28;19924;-61
2024/04/04 01:46:48;;;;;;;;;;;23.80;38.20;;;;;;5073181;28;19931;-61
2024/04/04 01:49:15;;;;;;;;;;;23.80;38.20;;;;;;5073016;28;19924;-61
2024/04/04 01:51:41;;;;;;;;;;;23.80;38.80;;;;;;5072955;28;19956;-61
2024/04/04 01:54:09;;;;;;;;;;;23.80;38.30;;;;;;5073105;28;19925;-61
2024/04/04 01:56:35;;;;;;;;;;;23.80;38.30;;;;;;5073431;28;19924;-61
2024/04/04 01:59:01;;;;;;;;;;;23.80;38.30;;;;;;5073117;28;19982;-61
2024/04/04 02:01:27;;;;;;;;;;;23.70;38.30;;;;;;5073242;28;19924;-61
2024/04/04 02:03:53;;;;;;;;;;;23.80;38.30;;;;;;5073340;28;19928;-61
2024/04/04 02:06:19;;;;;;;;;;;23.70;38.20;;;;;;5072715;28;20366;-61
2024/04/04 02:08:44;;;;;;;;;;;23.80;38.20;;;;;;5072809;28;19928;-61
2024/04/04 02:11:10;;;;;;;;;;;23.70;38.20;;;;;;5072714;28;19925;-61
2024/04/04 02:13:36;;;;;;;;;;;23.80;38.80;;;;;;5072782;28;19931;-61
2024/04/04 02:16:02;;;;;;;;;;;23.80;38.20;;;;;;5055924;28;20382;-61
2024/04/04 02:18:28;;;;;;;;;;;23.70;38.20;;;;;;5072605;28;19971;-61
2024/04/04 02:20:54;;;;;;;;;;;23.70;38.10;;;;;;5072378;28;19925;-61
2024/04/04 02:23:19;;;;;;;;;;;23.70;38.10;;;;;;5073009;28;20007;-61
2024/04/04 02:25:45;;;;;;;;;;;23.80;38.20;;;;;;5072506;28;19951;-61
2024/04/04 02:28:11;;;;;;;;;;;23.80;38.20;;;;;;5072804;28;20471;-61
2024/04/04 02:30:37;;;;;;;;;;;23.80;38.20;;;;;;5072465;28;20365;-61
2024/04/04 02:33:03;;;;;;;;;;;23.80;38.20;;;;;;5072858;28;19925;-61
2024/04/04 02:35:29;;;;;;;;;;;23.70;38.10;;;;;;5072646;28;19970;-61
2024/04/04 02:37:55;;;;;;;;;;;23.80;38.20;;;;;;5072651;28;20426;-61
2024/04/04 02:40:21;;;;;;;;;;;23.80;38.20;;;;;;5072370;28;19928;-61
2024/04/04 02:42:47;;;;;;;;;;;23.70;38.20;;;;;;5072243;28;19951;-61
2024/04/04 02:45:13;;;;;;;;;;;23.80;38.20;;;;;;5072656;28;19925;-61
2024/04/04 02:47:39;;;;;;;;;;;23.70;38.20;;;;;;5072366;28;19928;-61
2024/04/04 02:50:05;;;;;;;;;;;23.70;38.20;;;;;;5072138;28;19924;-61
2024/04/04 02:52:31;;;;;;;;;;;23.70;38.20;;;;;;5072362;28;20397;-61
2024/04/04 02:54:56;;;;;;;;;;;23.70;38.20;;;;;;5072454;28;20293;-61
2024/04/04 02:57:22;;;;;;;;;;;23.70;38.20;;;;;;5072235;28;19925;-61
2024/04/04 02:59:48;;;;;;;;;;;23.70;38.20;;;;;;5071930;28;20432;-61
2024/04/04 03:02:14;;;;;;;;;;;23.70;38.20;;;;;;5071949;28;19924;-61
2024/04/04 03:04:40;;;;;;;;;;;23.70;38.20;;;;;;5072361;28;19932;-61
2024/04/04 03:07:06;;;;;;;;;;;23.70;38.30;;;;;;5071818;28;20301;-61
2024/04/04 03:09:32;;;;;;;;;;;23.70;38.30;;;;;;5071848;28;19925;-62
2024/04/04 03:11:58;;;;;;;;;;;23.70;38.30;;;;;;5071755;28;19924;-61
2024/04/04 03:14:24;;;;;;;;;;;23.70;38.30;;;;;;5072173;28;20324;-61
2024/04/04 03:16:50;;;;;;;;;;;23.70;38.30;;;;;;5054950;28;19999;-61
2024/04/04 03:19:15;;;;;;;;;;;23.70;38.20;;;;;;5072198;28;19944;-61
2024/04/04 03:21:41;;;;;;;;;;;23.70;38.20;;;;;;5071528;28;19929;-61
2024/04/04 03:24:07;;;;;;;;;;;23.70;38.20;;;;;;5069574;28;19924;-61
2024/04/04 03:26:33;;;;;;;;;;;23.70;38.20;;;;;;5051971;28;20354;-61
2024/04/04 03:29:00;;;;;;;;;;;23.70;38.20;;;;;;5052068;28;19924;-61
2024/04/04 03:31:26;;;;;;;;;;;23.70;38.20;;;;;;5053063;28;19924;-61
2024/04/04 03:33:51;;;;;;;;;;;23.70;38.20;;;;;;5062515;28;20020;-61
2024/04/04 03:36:17;;;;;;;;;;;23.70;38.10;;;;;;5072696;28;20381;-61
2024/04/04 03:38:43;;;;;;;;;;;23.70;38.10;;;;;;5075703;28;19968;-61
2024/04/04 03:41:09;;;;;;;;;;;23.80;38.20;;;;;;5075448;28;19925;-61
2024/04/04 03:43:35;;;;;;;;;;;23.70;38.10;;;;;;5075395;28;19951;-61
2024/04/04 03:46:04;;;;;;;;;;;23.70;38.10;;;;;;5075670;28;19928;-61
2024/04/04 03:48:31;;;;;;;;;;;23.70;38.10;;;;;;5075452;28;20141;-61
2024/04/04 03:50:56;;;;;;;;;;;23.70;38.10;;;;;;5075382;28;19932;-61
2024/04/04 03:53:22;;;;;;;;;;;23.70;38.10;;;;;;5075189;28;19925;-61
2024/04/04 03:55:48;;;;;;;;;;;23.70;38.10;;;;;;5075538;28;19924;-61
2024/04/04 03:58:15;;;;;;;;;;;23.70;38.10;;;;;;5075199;28;19932;-61
2024/04/04 04:00:42;;;;;;;;;;;23.70;38.10;;;;;;5075162;28;19936;-62
2024/04/04 04:03:07;;;;;;;;;;;23.70;38.10;;;;;;5074802;28;19946;-61
2024/04/04 04:05:33;;;;;;;;;;;23.70;38.20;;;;;;5074786;28;19929;-61
2024/04/04 04:07:59;;;;;;;;;;;23.70;38.20;;;;;;5075219;28;20045;-61
2024/04/04 04:10:29;;;;;;;;;;;23.70;38.20;;;;;;5074610;28;19928;-61
2024/04/04 04:12:55;;;;;;;;;;;23.70;38.20;;;;;;5075022;28;19925;-61
2024/04/04 04:15:21;;;;;;;;;;;23.70;38.20;;;;;;5074936;28;19936;-61
2024/04/04 04:17:47;;;;;;;;;;;23.70;38.20;;;;;;5074978;28;19924;-62
2024/04/04 04:22:59;;;;;;;;;;;23.70;38.30;;;;;;5074543;28;20309;-61
2024/04/04 04:25:25;;;;;;;;;;;23.70;38.20;;;;;;5075013;28;19924;-61
2024/04/04 04:27:51;;;;;;;;;;;23.70;38.20;;;;;;5074896;28;20459;-61
2024/04/04 04:30:17;;;;;;;;;;;23.70;38.20;;;;;;5074577;28;19955;-61
2024/04/04 04:32:42;;;;;;;;;;;23.70;38.20;;;;;;5074491;28;19924;-61
2024/04/04 04:35:08;;;;;;;;;;;23.70;38.10;;;;;;5074923;28;19925;-61
2024/04/04 04:37:34;;;;;;;;;;;23.70;38.10;;;;;;5074309;28;19928;-61
2024/04/04 04:40:01;;;;;;;;;;;23.70;38.10;;;;;;5074453;28;20324;-61
2024/04/04 04:42:26;;;;;;;;;;;23.70;37.80;;;;;;5072975;28;20295;-61
2024/04/04 04:44:53;;;;;;;;;;;23.70;37.60;;;;;;5074420;28;19925;-61
2024/04/04 04:47:19;;;;;;;;;;;23.80;37.50;;;;;;5074385;28;19928;-61
2024/04/04 04:49:45;;;;;;;;;;;23.80;37.40;;;;;;5072765;28;19929;-61
2024/04/04 04:52:11;;;;;;;;;;;23.80;37.30;;;;;;5074174;28;19967;-61
2024/04/04 04:54:37;;;;;;;;;;;23.80;37.20;;;;;;5073344;28;19924;-61
2024/04/04 04:57:03;;;;;;;;;;;23.90;37.20;;;;;;5073446;28;20333;-61
2024/04/04 04:59:29;;;;;;;;;;;23.90;37.20;;;;;;5074208;28;20007;-61
2024/04/04 05:01:55;;;;;;;;;;;23.90;37.10;;;;;;5073698;28;20382;-61
2024/04/04 05:04:21;;;;;;;;;;;23.90;37.10;;;;;;5073072;28;19929;-61
2024/04/04 05:06:48;;;;;;;;;;;23.90;37.10;;;;;;5073927;28;19970;-61
2024/04/04 05:09:15;;;;;;;;;;;23.90;37.10;;;;;;5073681;28;20381;-61
2024/04/04 05:11:41;;;;;;;;;;;23.90;37.10;;;;;;5073342;28;19928;-61
2024/04/04 05:14:07;;;;;;;;;;;23.90;37.00;;;;;;5069736;28;19925;-61
2024/04/04 05:16:34;;;;;;;;;;;23.90;37.50;;;;;;5057511;28;19994;-61
2024/04/04 05:19:01;;;;;;;;;;;23.90;36.90;;;;;;5058704;28;19928;-62
2024/04/04 05:21:27;;;;;;;;;;;23.90;36.80;;;;;;5065842;28;20301;-61
2024/04/04 05:23:53;;;;;;;;;;;23.90;36.90;;;;;;5065111;28;19929;-62
2024/04/04 05:26:19;;;;;;;;;;;23.90;37.00;;;;;;5062935;28;19925;-61
2024/04/04 05:28:47;;;;;;;;;;;23.90;37.10;;;;;;5055670;28;19933;-60
2024/04/04 05:31:13;;;;;;;;;;;23.90;37.70;;;;;;5057677;28;19924;-61
2024/04/04 05:33:39;;;;;;;;;;;23.90;37.20;;;;;;5059575;28;19954;-61
2024/04/04 05:36:05;;;;;;;;;;;24.00;37.30;;;;;;5056678;28;19955;-61
2024/04/04 05:38:31;;;;;;;;;;;24.00;37.30;;;;;;5061701;28;20393;-61
2024/04/04 05:40:57;;;;;;;;;;;24.00;37.20;;;;;;5062130;28;20241;-64
2024/04/04 05:43:23;;;;;;;;;;;24.10;37.20;;;;;;5055652;28;20366;-61
2024/04/04 05:45:49;;;;;;;;;;;24.10;37.10;;;;;;5051138;28;19932;-61
2024/04/04 05:48:15;;;;;;;;;;;24.10;37.00;;;;;;5053182;28;19939;-63
2024/04/04 05:50:41;;;;;;;;;;;24.10;36.90;;;;;;5053135;28;19971;-63
2024/04/04 05:53:07;;;;;;;;;;;24.20;37.10;;;;;;5036854;28;20047;-63
2024/04/04 05:55:33;;;;;;;;;;;24.20;37.20;;;;;;5052773;28;20572;-64
2024/04/04 05:57:59;;;;;;;;;;;24.30;37.10;;;;;;5056062;28;20350;-63
2024/04/04 06:00:25;;;;;;;;;;;24.30;37.10;;;;;;5054855;28;19941;-62
2024/04/04 06:02:52;;;;;;;;;;;24.30;37.10;;;;;;5054143;28;19940;-63
2024/04/04 06:05:17;;;;;;;;;;;24.30;37.00;;;;;;5052364;28;19939;-62
2024/04/04 06:07:43;;;;;;;;;;;24.40;37.00;;;;;;5055890;28;19936;-61
2024/04/04 06:10:09;;;;;;;;;;;24.40;37.00;;;;;;5052273;28;19924;-62
2024/04/04 06:12:35;;;;;;;;;;;24.40;37.60;;;;;;5037848;28;20343;-62
2024/04/04 06:15:01;;;;;;;;;;;24.50;37.00;;;;;;5052952;28;20393;-63
2024/04/04 06:17:27;;;;;;;;;;;24.50;36.90;;;;;;5054271;28;19998;-58
2024/04/04 06:19:53;;;;;;;;;;;24.50;36.70;;;;;;5059160;28;20289;-58
2024/04/04 06:22:19;;;;;;;;;;;24.50;36.50;;;;;;5063912;28;19925;-56
2024/04/04 06:24:45;;;;;;;;;;;24.60;36.40;;;;;;5058381;28;19925;-59
2024/04/04 06:27:10;;;;;;;;;;;24.70;36.50;;;;;;5064799;28;19968;-58
2024/04/04 06:29:36;;;;;;;;;;;24.70;36.70;;;;;;5061472;28;20530;-57
2024/04/04 06:32:04;;;;;;;;;;;24.70;36.80;;;;;;5063176;28;20392;-59
2024/04/04 06:34:30;;;;;;;;;;;24.80;36.90;;;;;;5057064;28;19944;-60
2024/04/04 06:36:56;;;;;;;;;;;24.80;36.80;;;;;;5058562;28;19932;-60
2024/04/04 06:39:22;;;;;;;;;;;24.80;36.80;;;;;;5057513;28;19925;-58
2024/04/04 06:41:48;;;;;;;;;;;24.90;36.80;;;;;;5037727;28;19928;-57
2024/04/04 06:44:14;;;;;;;;;;;24.90;36.80;;;;;;5059558;28;19924;-57
2024/04/04 06:46:40;;;;;;;;;;;24.90;36.70;;;;;;5061535;28;19931;-59
2024/04/04 06:49:06;;;;;;;;;;;24.90;36.60;;;;;;5041530;28;19954;-59
2024/04/04 06:51:32;;;;;;;;;;;25.00;36.70;;;;;;5053335;28;19936;-61
2024/04/04 06:53:58;;;;;;;;;;;25.00;36.70;;;;;;5055441;28;20027;-60
2024/04/04 06:56:24;;;;;;;;;;;25.10;36.60;;;;;;5061833;28;20010;-60
2024/04/04 06:58:50;;;;;;;;;;;25.10;36.50;;;;;;5059911;28;20397;-59
2024/04/04 07:01:16;;;;;;;;;;;25.20;36.50;;;;;;5056441;28;19955;-58
2024/04/04 07:03:42;;;;;;;;;;;25.20;36.30;;;;;;5075114;28;20032;-59
2024/04/04 07:06:07;;;;;;;;;;;25.20;36.10;;;;;;5054493;28;20354;-59
2024/04/04 07:08:35;;;;;;;;;;;25.30;36.10;;;;;;5058015;28;19932;-58
2024/04/04 07:11:04;;;;;;;;;;;25.40;36.00;;;;;;5039384;28;19999;-59
2024/04/04 07:13:33;;;;;;;;;;;25.40;35.90;;;;;;5039497;28;19932;-59
2024/04/04 07:16:00;;;;;;;;;;;25.50;35.90;;;;;;5056190;28;19933;-58
2024/04/04 07:18:26;;;;;;;;;;;25.60;35.70;;;;;;5058295;28;19928;-58
2024/04/04 07:20:53;;;;;;;;;;;25.60;35.50;;;;;;5063604;28;19940;-60
2024/04/04 07:23:19;;;;;;;;;;;25.60;35.50;;;;;;5054531;28;19929;-60
2024/04/04 07:25:49;;;;;;;;;;;25.70;35.40;;;;;;5057470;28;20043;-58
2024/04/04 07:28:15;;;;;;;;;;;25.70;35.90;;;;;;5059702;28;19924;-58
2024/04/04 07:30:41;;;;;;;;;;;25.70;35.40;;;;;;5058564;28;20267;-58
2024/04/04 07:33:07;;;;;;;;;;;25.70;35.40;;;;;;5057063;28;19964;-58
2024/04/04 07:35:33;;;;;;;;;;;25.70;35.50;;;;;;5056302;28;20027;-61
2024/04/04 07:37:58;;;;;;;;;;;25.70;35.70;;;;;;5054854;28;20335;-58
2024/04/04 07:40:24;;;;;;;;;;;25.70;35.70;;;;;;5058061;28;19932;-59
2024/04/04 07:42:53;;;;;;;;;;;25.70;35.70;;;;;;5058919;28;20336;-58
2024/04/04 07:45:19;;;;;;;;;;;25.70;35.60;;;;;;5056800;28;20002;-58
2024/04/04 07:47:44;;;;;;;;;;;25.70;35.50;;;;;;5057438;28;20002;-57
2024/04/04 07:50:14;;;;;;;;;;;25.70;35.40;;;;;;5057315;28;20262;-58
2024/04/04 07:52:40;;;;;;;;;;;25.70;35.30;;;;;;5053808;28;19940;-59
2024/04/04 07:55:06;;;;;;;;;;;25.70;35.20;;;;;;5058607;28;20062;-60
2024/04/04 07:57:32;;;;;;;;;;;25.70;34.90;;;;;;5055781;28;19928;-60
2024/04/04 07:59:58;;;;;;;;;;;25.70;35.20;;;;;;5057110;28;19932;-59
2024/04/04 08:02:26;;;;;;;;;;;25.80;34.60;;;;;;5055560;28;19932;-61
2024/04/04 08:04:52;;;;;;;;;;;25.70;35.00;;;;;;5053226;28;19936;-60
2024/04/04 08:07:18;;;;;;;;;;;25.80;35.00;;;;;;5055795;28;19932;-59
2024/04/04 08:09:44;;;;;;;;;;;25.80;35.20;;;;;;5056830;28;20336;-59
2024/04/04 08:12:09;;;;;;;;;;;25.90;35.10;;;;;;5058427;28;20042;-60
2024/04/04 08:14:36;;;;;;;;;;;26.00;35.10;;;;;;5055549;28;19978;-59
2024/04/04 08:17:02;;;;;;;;;;;26.00;34.90;;;;;;5060174;28;19970;-59
2024/04/04 08:19:28;;;;;;;;;;;26.10;34.50;;;;;;5059237;28;20312;-59
2024/04/04 08:21:54;;;;;;;;;;;26.10;34.80;;;;;;5031514;28;20026;-59
2024/04/04 08:24:19;;;;;;;;;;;26.10;34.80;;;;;;5061099;28;20004;-61
2024/04/04 08:26:45;;;;;;;;;;;26.20;34.70;;;;;;5061537;28;19952;-62
2024/04/04 08:29:13;;;;;;;;;;;26.20;34.40;;;;;;5065082;28;19935;-60
2024/04/04 08:31:39;;;;;;;;;;;26.30;34.40;;;;;;5064115;28;19924;-59
2024/04/04 08:34:05;;;;;;;;;;;26.30;33.00;;;;;;5058772;28;19924;-61
2024/04/04 08:36:31;;;;;;;;;;;26.20;33.30;;;;;;5058604;28;19932;-60
2024/04/04 08:38:56;;;;;;;;;;;26.10;33.80;;;;;;5061250;28;19933;-60
2024/04/04 08:41:23;;;;;;;;;;;26.10;34.20;;;;;;5044753;28;19974;-59
2024/04/04 08:43:50;;;;;;;;;;;26.10;34.10;;;;;;5060787;28;20305;-60
2024/04/04 08:46:17;;;;;;;;;;;26.10;34.10;;;;;;5060672;28;19925;-60
2024/04/04 08:48:43;;;;;;;;;;;26.20;34.10;;;;;;5060203;28;19925;-61
2024/04/04 08:51:11;;;;;;;;;;;26.20;34.10;;;;;;5061718;28;19931;-62
2024/04/04 08:53:37;;;;;;;;;;;26.20;34.20;;;;;;5062162;28;19925;-58
2024/04/04 08:56:05;;;;;;;;;;;26.20;33.60;;;;;;5056112;28;19938;-60
2024/04/04 08:58:31;;;;;;;;;;;26.20;32.50;;;;;;5064765;28;20484;-60
2024/04/04 09:00:57;;;;;;;;;;;26.10;33.50;;;;;;5062347;28;20011;-61
2024/04/04 09:03:22;;;;;;;;;;;26.10;34.00;;;;;;5058232;28;19928;-58
2024/04/04 09:05:49;;;;;;;;;;;26.20;33.80;;;;;;5044455;28;20386;-62
2024/04/04 09:08:15;;;;;;;;;;;26.20;33.90;;;;;;5061053;28;19940;-59
2024/04/04 09:10:42;;;;;;;;;;;26.30;33.90;;;;;;5039243;28;19944;-59
2024/04/04 09:13:09;;;;;;;;;;;26.50;34.00;;;;;;5063055;28;20427;-60
2024/04/04 09:15:36;;;;;;;;;;;26.50;33.90;;;;;;5059630;28;20298;-59
2024/04/04 09:18:04;;;;;;;;;;;26.60;33.80;;;;;;5042489;28;20397;-58
2024/04/04 09:20:40;;;;;;;;;;;26.70;33.70;;;;;;5063073;28;20290;-59
2024/04/04 09:23:07;;;;;;;;;;;26.70;33.60;;;;;;5058252;28;20624;-58
2024/04/04 09:25:34;;;;;;;;;;;26.80;33.50;;;;;;5060012;28;19989;-59
2024/04/04 09:28:01;;;;;;;;;;;26.90;33.50;;;;;;5059315;28;19943;-61
2024/04/04 09:30:34;;;;;;;;;;;26.90;33.40;;;;;;5056277;28;19932;-59
2024/04/04 09:33:01;;;;;;;;;;;26.90;33.40;;;;;;5043887;28;19929;-59
2024/04/04 09:35:27;;;;;;;;;;;26.90;33.30;;;;;;5058471;28;21384;-59
2024/04/04 09:37:53;;;;;;;;;;;26.90;33.30;;;;;;5057357;28;19932;-60
2024/04/04 09:40:20;;;;;;;;;;;26.90;33.40;;;;;;5061592;28;19925;-59
2024/04/04 09:42:46;;;;;;;;;;;26.90;33.50;;;;;;5061537;28;19932;-59
2024/04/04 09:45:13;;;;;;;;;;;26.90;33.50;;;;;;5064171;28;19924;-60
2024/04/04 09:47:46;;;;;;;;;;;26.90;33.40;;;;;;5057856;28;19953;-60
2024/04/04 09:50:16;;;;;;;;;;;26.90;33.30;;;;;;5044336;28;19937;-59
2024/04/04 09:52:42;;;;;;;;;;;26.90;33.20;;;;;;5058905;28;19951;-60
2024/04/04 09:55:09;;;;;;;;;;;26.90;33.20;;;;;;5063306;28;20314;-61
2024/04/04 09:57:36;;;;;;;;;;;26.90;33.20;;;;;;5056789;28;19928;-60
2024/04/04 10:00:13;;;;;;;;;;;27.00;33.30;;;;;;5063096;28;19933;-59
2024/04/04 10:02:48;;;;;;;;;;;27.00;33.30;;;;;;5060400;28;19947;-60
2024/04/04 10:05:15;;;;;;;;;;;26.90;33.80;;;;;;5065303;28;19932;-60
2024/04/04 10:07:41;;;;;;;;;;;26.90;33.10;;;;;;5044902;28;19940;-60
2024/04/04 10:10:13;;;;;;;;;;;26.90;32.90;;;;;;5060207;28;19983;-61
2024/04/04 10:12:42;;;;;;;;;;;26.90;32.90;;;;;;5066552;28;19932;-61
2024/04/04 10:15:08;;;;;;;;;;;26.90;33.00;;;;;;5061506;28;19925;-59
2024/04/04 10:17:40;;;;;;;;;;;26.90;33.30;;;;;;5063152;28;19942;-59
2024/04/04 10:20:07;;;;;;;;;;;26.80;33.10;;;;;;5057914;28;20386;-59
2024/04/04 10:22:33;;;;;;;;;;;26.80;33.50;;;;;;5061663;28;21385;-60
2024/04/04 10:25:00;;;;;;;;;;;26.80;33.10;;;;;;5059446;28;19924;-60
2024/04/04 10:27:25;;;;;;;;;;;26.80;32.80;;;;;;5059088;28;19989;-60
2024/04/04 10:29:52;;;;;;;;;;;26.80;32.90;;;;;;5045364;28;19928;-60
2024/04/04 10:32:20;;;;;;;;;;;26.80;33.10;;;;;;5054561;28;19924;-60
2024/04/04 10:34:45;;;;;;;;;;;26.80;33.00;;;;;;5062517;28;20598;-60
2024/04/04 10:37:14;;;;;;;;;;;26.80;32.80;;;;;;5072559;28;19935;-60
2024/04/04 10:39:40;;;;;;;;;;;26.80;33.00;;;;;;5062753;28;19932;-59
2024/04/04 10:42:06;;;;;;;;;;;26.90;33.00;;;;;;5065322;28;19929;-61
2024/04/04 10:44:33;;;;;;;;;;;26.90;33.00;;;;;;5063079;28;19939;-59
2024/04/04 10:46:59;;;;;;;;;;;26.90;32.80;;;;;;5061200;28;20405;-60
2024/04/04 10:49:27;;;;;;;;;;;27.00;32.70;;;;;;5063251;28;20003;-59
2024/04/04 10:51:55;;;;;;;;;;;27.00;32.80;;;;;;5068946;28;19986;-59
2024/04/04 10:54:22;;;;;;;;;;;27.00;32.30;;;;;;5061835;28;19929;-60
2024/04/04 10:56:48;;;;;;;;;;;27.00;32.50;;;;;;5041714;28;19928;-60
2024/04/04 10:59:17;;;;;;;;;;;27.00;31.90;;;;;;5060171;28;19924;-59
2024/04/04 11:01:44;;;;;;;;;;;26.90;31.30;;;;;;5038067;28;19929;-58
2024/04/04 11:04:11;;;;;;;;;;;26.80;31.60;;;;;;5043115;28;19924;-57
2024/04/04 11:06:39;;;;;;;;;;;26.80;32.10;;;;;;5056620;28;20425;-59
2024/04/04 11:09:10;;;;;;;;;;;26.80;32.20;;;;;;5063145;28;19933;-58
2024/04/04 11:11:38;;;;;;;;;;;26.70;32.80;;;;;;5063159;28;20378;-58
2024/04/04 11:14:05;;;;;;;;;;;26.70;32.50;;;;;;5055833;28;19978;-58
2024/04/04 11:16:31;;;;;;;;;;;26.70;32.50;;;;;;5050052;28;19932;-59
2024/04/04 11:18:58;;;;;;;;;;;26.70;32.50;;;;;;5060030;28;20393;-58
2024/04/04 11:21:24;;;;;;;;;;;26.70;32.20;;;;;;5055074;28;19924;-60
2024/04/04 11:23:49;;;;;;;;;;;26.70;32.20;;;;;;5057851;28;20261;-60
2024/04/04 11:26:16;;;;;;;;;;;26.70;32.30;;;;;;5058064;28;20019;-59
2024/04/04 11:28:43;;;;;;;;;;;26.70;31.30;;;;;;5059311;28;20333;-58
2024/04/04 11:31:08;;;;;;;;;;;26.60;31.00;;;;;;5059156;28;19924;-58
2024/04/04 11:33:34;;;;;;;;;;;26.50;30.80;;;;;;5056410;28;19931;-59
2024/04/04 11:36:00;;;;;;;;;;;26.50;31.30;;;;;;5060522;28;19933;-58
2024/04/04 11:38:26;;;;;;;;;;;26.40;32.30;;;;;;5060008;28;19974;-58
2024/04/04 11:40:53;;;;;;;;;;;26.40;31.90;;;;;;5059051;28;20408;-59
2024/04/04 11:43:19;;;;;;;;;;;26.40;31.70;;;;;;5045906;28;19928;-58
2024/04/04 11:45:44;;;;;;;;;;;26.40;31.30;;;;;;5058673;28;19974;-59
2024/04/04 11:48:10;;;;;;;;;;;26.40;31.70;;;;;;5057266;28;19925;-59
2024/04/04 11:50:37;;;;;;;;;;;26.40;32.00;;;;;;5054469;28;19925;-59
2024/04/04 11:53:04;;;;;;;;;;;26.40;32.10;;;;;;5064629;28;19947;-58
2024/04/04 11:55:30;;;;;;;;;;;26.40;32.20;;;;;;5062882;28;19928;-59
2024/04/04 11:57:56;;;;;;;;;;;26.40;32.10;;;;;;5070364;28;20324;-58
2024/04/04 12:00:23;;;;;;;;;;;26.40;32.10;;;;;;5066270;28;19932;-59
2024/04/04 12:02:50;;;;;;;;;;;26.40;32.20;;;;;;5067746;28;19928;-58
2024/04/04 12:05:16;;;;;;;;;;;26.50;32.20;;;;;;5064684;28;19924;-59
2024/04/04 12:07:43;;;;;;;;;;;26.50;32.30;;;;;;5065893;28;19932;-59
2024/04/04 12:10:12;;;;;;;;;;;26.50;32.30;;;;;;5066041;28;19985;-57
2024/04/04 12:12:38;;;;;;;;;;;26.60;32.40;;;;;;5064760;28;20385;-59
2024/04/04 12:15:07;;;;;;;;;;;26.60;32.30;;;;;;5060038;28;19924;-59
2024/04/04 12:17:38;;;;;;;;;;;26.60;32.10;;;;;;5067431;28;19932;-59
2024/04/04 12:20:16;;;;;;;;;;;26.60;32.00;;;;;;5065056;28;19933;-59
2024/04/04 12:22:43;;;;;;;;;;;26.60;31.90;;;;;;5064905;28;19924;-59
2024/04/04 12:25:09;;;;;;;;;;;26.60;31.80;;;;;;5063974;28;19924;-58
2024/04/04 12:27:35;;;;;;;;;;;26.60;32.40;;;;;;5065043;28;19929;-59
2024/04/04 12:30:01;;;;;;;;;;;26.60;31.90;;;;;;5065407;28;19987;-60
2024/04/04 12:32:27;;;;;;;;;;;26.60;32.00;;;;;;5066259;28;19925;-58
2024/04/04 12:34:53;;;;;;;;;;;26.60;32.70;;;;;;5052951;28;19924;-58
2024/04/04 12:37:19;;;;;;;;;;;26.60;32.20;;;;;;5061242;28;19925;-58
2024/04/04 12:39:45;;;;;;;;;;;26.60;32.80;;;;;;5066113;28;19929;-58
2024/04/04 12:42:11;;;;;;;;;;;26.60;32.20;;;;;;5063465;28;20374;-57
2024/04/04 12:44:36;;;;;;;;;;;26.70;32.30;;;;;;5063021;28;19930;-58
2024/04/04 12:47:04;;;;;;;;;;;26.60;32.20;;;;;;5067816;28;19928;-58
2024/04/04 12:49:30;;;;;;;;;;;26.60;32.20;;;;;;5070415;28;19925;-58
2024/04/04 12:51:56;;;;;;;;;;;26.70;32.20;;;;;;5062874;28;20070;-58
2024/04/04 12:54:22;;;;;;;;;;;26.60;32.10;;;;;;5071367;28;19928;-58
2024/04/04 12:56:48;;;;;;;;;;;26.70;32.30;;;;;;5067500;28;19928;-58
2024/04/04 12:59:14;;;;;;;;;;;26.70;32.70;;;;;;5064493;28;19933;-58
2024/04/04 13:01:39;;;;;;;;;;;26.70;32.10;;;;;;5069982;28;19978;-58
2024/04/04 13:04:05;;;;;;;;;;;26.70;32.10;;;;;;5062368;28;19982;-58
2024/04/04 13:06:31;;;;;;;;;;;26.70;32.10;;;;;;5064562;28;20006;-57
2024/04/04 13:08:57;;;;;;;;;;;26.70;32.40;;;;;;5064101;28;19932;-57
2024/04/04 13:11:23;;;;;;;;;;;26.70;32.00;;;;;;5056786;28;19924;-58
2024/04/04 13:13:49;;;;;;;;;;;26.70;32.00;;;;;;5050022;28;19939;-58
2024/04/04 13:16:15;;;;;;;;;;;26.70;32.40;;;;;;5063970;28;19943;-60
2024/04/04 13:18:41;;;;;;;;;;;26.70;32.40;;;;;;5059035;28;19932;-59
2024/04/04 13:21:07;;;;;;;;;;;26.80;31.90;;;;;;5067813;28;19943;-59
2024/04/04 13:23:33;;;;;;;;;;;26.80;31.90;;;;;;5062345;28;19967;-59
2024/04/04 13:25:59;;;;;;;;;;;26.80;31.80;;;;;;5061928;28;19929;-59
2024/04/04 13:28:25;;;;;;;;;;;26.70;31.30;;;;;;5063589;28;19925;-60
2024/04/04 13:30:50;;;;;;;;;;;26.70;31.10;;;;;;5065462;28;19931;-60
2024/04/04 13:33:16;;;;;;;;;;;26.70;31.20;;;;;;5057830;28;19931;-60
2024/04/04 13:35:42;;;;;;;;;;;26.70;31.50;;;;;;5060919;28;20348;-60
2024/04/04 13:38:08;;;;;;;;;;;26.70;31.60;;;;;;5058039;28;20111;-61
2024/04/04 13:40:34;;;;;;;;;;;26.70;30.70;;;;;;5059929;28;19932;-62
2024/04/04 13:43:00;;;;;;;;;;;26.70;31.00;;;;;;5063461;28;20286;-62
2024/04/04 13:45:26;;;;;;;;;;;26.70;31.40;;;;;;5061525;28;19933;-61
2024/04/04 13:47:52;;;;;;;;;;;26.70;31.70;;;;;;5067407;28;19939;-60
2024/04/04 13:50:20;;;;;;;;;;;26.70;31.90;;;;;;5060521;28;19990;-60
2024/04/04 13:52:46;;;;;;;;;;;26.70;31.90;;;;;;5043722;28;19928;-58
2024/04/04 13:55:12;;;;;;;;;;;26.70;32.00;;;;;;5055244;28;19933;-60
2024/04/04 13:57:37;;;;;;;;;;;26.70;32.00;;;;;;5063283;28;20054;-61
2024/04/04 14:00:06;;;;;;;;;;;26.70;32.10;;;;;;5059094;28;20718;-59
2024/04/04 14:02:31;;;;;;;;;;;26.80;32.10;;;;;;5063956;28;19936;-60
2024/04/04 14:04:58;;;;;;;;;;;26.80;31.70;;;;;;5061418;28;19964;-60
2024/04/04 14:07:23;;;;;;;;;;;26.80;31.50;;;;;;5056932;28;19925;-63
2024/04/04 14:09:49;;;;;;;;;;;26.80;31.20;;;;;;5063548;28;19935;-64
2024/04/04 14:12:16;;;;;;;;;;;26.80;31.90;;;;;;5055297;28;20278;-61
2024/04/04 14:14:43;;;;;;;;;;;26.80;31.10;;;;;;5057628;28;19928;-62